Bournemouth, United Kingdom

8:24 AM GMT on February 22, 2017 (GMT +0000)
West Parley | | Change Station

Elev 49 ft 50.78 °N, 1.87 °W | Updated 10 seconds ago

Mostly Cloudy
Mostly Cloudy
52.7 °F
Feels Like 52.7 °F
N
5.8
Wind Variable Wind from West
Gusts 7.4 mph

Today
High -- | Low -- °F
--% Chance of Precip.
Yesterday
High -- | Low -- °F
Precip. -- in
Pressure 29.83 in
Visibility 6.2 miles
Clouds Mostly Cloudy 800 ft
Mostly Cloudy 1200 ft
Dew Point 47 °F
Humidity 82%
Rainfall 0.00 in
Snow Depth Not available.
7:05 AM 5:36 PM
Waning Crescent, 19% visible
SPECI EGDM 220808Z 25014KT 9999 BKN008 BKN012 10/09 Q1010 GRN TEMPO 4000 -DZ GRN
Pressure 29.83 in
Visibility 6.2 miles
Clouds Mostly Cloudy 800 ft
Mostly Cloudy 1200 ft
Dew Point 47 °F
Humidity 82%
Rainfall 0.00 in
Snow Depth Not available.
7:05 AM 5:36 PM
Waning Crescent, 19% visible
SPECI EGDM 220808Z 25014KT 9999 BKN008 BKN012 10/09 Q1010 GRN TEMPO 4000 -DZ GRN

Get Your Daily Forecast Email!

Thanks for signing up!

Be on the lookout for a verification email in your inbox.

You'll start receiving the daily forecast at 8 AM.

×

10-Day Weather Forecast

×

Almanac

Astronomy

Feb. 22, 2017 Rise Set
Actual Time
Civil Twilight
Nautical Twilight
Astronomical Twilight
Moon
Length of Visible Light
Length of Day
Tomorrow will be .
, % of the Moon is Illuminated

Today's Extremes

Country Highs Country Lows

Community

WunderPhotos

Upload Photos

1,962,540 photos uploaded!

WunderBlog® & News

Nearby

Air Quality

  Air Quality AQ Index Pollutant
Not available.

Snow Depth

Station Depth Elevation

Earthquake Activity

City Distance Mag. Time & Date
Minimum magnitude displayed is 2.5.

Coastal Water Temperatures

Place Temperature

Stations

Nearby Weather Stations

Station Location Temp. Windchill Dew Point Humidity Wind Precip. Elev Updated Type